createdAt,value
2019-01-22T00:02:13.356Z,129.25
2019-01-22T00:04:55.520Z,127.22
2019-01-22T00:07:43.816Z,114.55
2019-01-22T00:10:25.301Z,119.02
2019-01-22T00:13:13.354Z,131.55
2019-01-22T00:15:54.887Z,122.47
2019-01-22T00:18:42.817Z,128.65
2019-01-22T00:21:24.116Z,126.55
2019-01-22T00:24:12.112Z,115.22
2019-01-22T00:26:53.930Z,112.28
2019-01-22T00:29:41.964Z,103.25
2019-01-22T00:32:30.002Z,103.90
2019-01-22T00:35:11.843Z,102.85
2019-01-22T00:37:59.892Z,117.42
2019-01-22T00:40:42.722Z,99.13
2019-01-22T00:43:30.728Z,97.60
2019-01-22T00:46:12.385Z,113.32
2019-01-22T00:49:00.381Z,100.00
2019-01-22T00:51:42.360Z,100.97
2019-01-22T00:54:30.363Z,103.75
2019-01-22T00:57:11.631Z,101.47
2019-01-22T00:59:59.651Z,108.80
2019-01-22T01:02:41.754Z,109.97
2019-01-22T01:05:29.916Z,129.38
2019-01-22T01:08:12.085Z,120.80
2019-01-22T01:11:00.160Z,123.55
2019-01-22T01:13:43.189Z,128.32
2019-01-22T01:16:31.241Z,137.20
2019-01-22T01:19:13.075Z,113.62
2019-01-22T01:21:55.229Z,116.97
2019-01-22T01:24:43.379Z,110.65
2019-01-22T01:27:25.474Z,132.12
2019-01-22T01:30:13.131Z,122.50
2019-01-22T01:32:54.803Z,140.65
2019-01-22T01:35:23.601Z,132.35
2019-01-22T01:38:11.614Z,117.33
2019-01-22T01:40:59.690Z,107.15
2019-01-22T01:43:41.827Z,123.28
2019-01-22T01:46:29.863Z,124.45
2019-01-22T01:49:11.898Z,126.05
2019-01-22T01:52:00.007Z,115.65
2019-01-22T01:54:41.549Z,113.03
2019-01-22T01:57:29.595Z,128.65
2019-01-22T02:00:12.988Z,123.70
2019-01-22T02:03:01.007Z,125.87
2019-01-22T02:05:42.657Z,117.22
2019-01-22T02:08:24.537Z,120.70
2019-01-22T02:11:12.581Z,125.12
2019-01-22T02:13:54.400Z,112.95
2019-01-22T02:17:03.459Z,122.78
2019-01-22T02:20:41.799Z,118.75
2019-01-22T02:23:21.076Z,115.60
2019-01-22T02:26:07.138Z,117.40
2019-01-22T02:29:14.627Z,104.58
2019-01-22T02:32:17.326Z,116.40
2019-01-22T02:35:01.012Z,102.22
2019-01-22T02:38:02.655Z,109.00
2019-01-22T02:41:03.304Z,108.83
2019-01-22T02:44:09.693Z,115.28
2019-01-22T02:47:17.170Z,109.60
2019-01-22T02:50:20.639Z,121.37
2019-01-22T02:53:29.468Z,120.13
2019-01-22T02:56:14.384Z,110.10
2019-01-22T02:59:21.843Z,112.97
2019-01-22T03:02:22.488Z,111.50
2019-01-22T03:05:30.015Z,109.45
2019-01-22T03:08:31.092Z,105.70
2019-01-22T03:11:36.381Z,107.05
2019-01-22T03:14:38.145Z,106.30
2019-01-22T03:17:45.565Z,92.27
2019-01-22T03:20:47.135Z,106.30
2019-01-22T03:23:54.826Z,110.68
2019-01-22T03:27:02.515Z,107.00
2019-01-22T03:29:48.546Z,119.47
2019-01-22T03:32:56.102Z,118.67
2019-01-22T03:35:58.449Z,112.60
2019-01-22T03:38:41.773Z,109.12
2019-01-22T03:41:49.187Z,122.25
2019-01-22T03:44:31.913Z,130.43
2019-01-22T03:47:39.755Z,106.20
2019-01-22T03:50:25.460Z,109.07
2019-01-22T03:53:32.808Z,97.08
2019-01-22T03:56:34.810Z,117.00
2019-01-22T03:59:16.575Z,114.37
2019-01-22T04:02:05.206Z,109.42
2019-01-22T04:04:47.377Z,108.87
2019-01-22T04:07:35.840Z,118.60
2019-01-22T04:10:19.103Z,107.47
2019-01-22T04:13:07.266Z,122.92
2019-01-22T04:15:49.262Z,110.30
2019-01-22T04:18:19.184Z,110.25
2019-01-22T04:21:08.108Z,108.17
2019-01-22T04:24:17.056Z,108.52
2019-01-22T04:27:26.465Z,116.65
2019-01-22T04:30:33.763Z,113.17
2019-01-22T04:33:17.235Z,105.75
2019-01-22T04:36:19.897Z,113.12
2019-01-22T04:39:02.660Z,119.70
2019-01-22T04:42:11.420Z,113.05
2019-01-22T04:45:18.792Z,127.60
2019-01-22T04:48:27.011Z,103.30
2019-01-22T04:51:34.316Z,100.97
2019-01-22T04:54:41.745Z,114.77
2019-01-22T04:57:42.326Z,119.37
2019-01-22T05:00:49.644Z,118.72
2019-01-22T05:03:50.496Z,124.02
2019-01-22T05:06:57.960Z,113.10
2019-01-22T05:09:59.234Z,110.52
2019-01-22T05:13:01.944Z,113.12
2019-01-22T05:15:45.231Z,111.03
2019-01-22T05:18:52.541Z,125.02
2019-01-22T05:21:35.518Z,118.97
2019-01-22T05:24:42.871Z,110.10
2019-01-22T05:27:26.260Z,117.87
2019-01-22T05:30:33.601Z,110.85
2019-01-22T05:33:11.185Z,121.42
2019-01-22T05:36:08.128Z,113.40
2019-01-22T05:38:48.488Z,115.55
2019-01-22T05:41:38.001Z,111.10
2019-01-22T05:44:45.306Z,112.60
2019-01-22T05:47:53.315Z,114.35
2019-01-22T05:51:00.620Z,108.30
2019-01-22T05:53:46.402Z,115.57
2019-01-22T05:56:55.160Z,104.87
2019-01-22T06:02:15.252Z,113.75
2019-01-22T06:05:22.571Z,111.22
2019-01-22T06:08:24.828Z,113.72
2019-01-22T06:11:27.072Z,106.12
2019-01-22T06:14:34.370Z,115.70
2019-01-22T06:17:35.681Z,139.77
2019-01-22T06:20:42.962Z,104.80
2019-01-22T06:23:26.484Z,112.00
2019-01-22T06:26:33.803Z,127.78
2019-01-22T06:29:05.494Z,123.18
2019-01-22T06:31:55.000Z,136.85
2019-01-22T06:34:43.865Z,129.45
2019-01-22T06:37:51.457Z,112.83
2019-01-22T06:40:52.796Z,112.95
2019-01-22T06:43:55.545Z,134.43
2019-01-22T06:46:41.280Z,114.70
2019-01-22T06:49:48.546Z,123.97
2019-01-22T06:52:57.274Z,131.90
2019-01-22T06:55:40.245Z,121.55
2019-01-22T06:58:47.583Z,117.85
2019-01-22T07:01:48.776Z,139.50
2019-01-22T07:04:56.070Z,118.17
2019-01-22T07:07:41.977Z,130.72
2019-01-22T07:10:31.529Z,140.18
2019-01-22T07:13:40.052Z,116.35
2019-01-22T07:16:47.358Z,130.40
2019-01-22T07:19:33.362Z,121.17
2019-01-22T07:22:35.494Z,139.43
2019-01-22T07:25:18.684Z,137.05
2019-01-22T07:28:26.040Z,124.97
2019-01-22T07:31:27.757Z,134.85
2019-01-22T07:34:35.072Z,132.55
2019-01-22T07:37:18.618Z,121.95
2019-01-22T07:40:27.349Z,128.90
2019-01-22T07:43:34.656Z,151.93
2019-01-22T07:46:37.501Z,139.32
2019-01-22T07:49:39.739Z,147.60
2019-01-22T07:52:42.533Z,132.43
2019-01-22T07:55:50.530Z,158.70
2019-01-22T07:58:59.352Z,155.97
2019-01-22T08:02:06.724Z,147.78
2019-01-22T08:05:09.275Z,140.90
2019-01-22T08:08:18.323Z,158.55
2019-01-22T08:11:01.796Z,160.78
2019-01-22T08:14:09.230Z,151.02
2019-01-22T08:16:59.250Z,160.25
2019-01-22T08:19:49.088Z,160.67
2019-01-22T08:22:50.428Z,160.95
2019-01-22T08:25:44.295Z,150.38
2019-01-22T08:28:53.505Z,152.85
2019-01-22T08:31:56.417Z,129.65
2019-01-22T08:34:57.325Z,121.80
2019-01-22T08:38:04.840Z,123.42
2019-01-22T08:40:48.434Z,111.72
2019-01-22T08:43:51.083Z,136.95
2019-01-22T08:46:58.774Z,127.12
2019-01-22T08:49:42.089Z,134.97
2019-01-22T08:52:49.565Z,124.95
2019-01-22T08:55:35.668Z,138.03
2019-01-22T08:58:25.487Z,142.03
2019-01-22T09:01:26.914Z,141.47
2019-01-22T09:04:34.299Z,132.43
2019-01-22T09:07:35.346Z,138.00
2019-01-22T09:10:43.898Z,140.20
2019-01-22T09:13:46.592Z,123.02
2019-01-22T09:16:47.600Z,136.45
2019-01-22T09:19:49.689Z,135.72
2019-01-22T09:22:57.173Z,139.82
2019-01-22T09:26:05.735Z,115.75
2019-01-22T09:29:13.016Z,126.25
2019-01-22T09:32:13.061Z,122.65
2019-01-22T09:35:21.607Z,128.07
2019-01-22T09:38:03.753Z,114.62
2019-01-22T09:40:45.790Z,109.05
2019-01-22T09:43:14.601Z,123.10
2019-01-22T09:46:02.730Z,104.03
2019-01-22T09:48:50.755Z,122.72
2019-01-22T09:51:32.560Z,112.97
2019-01-22T09:54:20.620Z,124.60
2019-01-22T09:57:02.650Z,109.48
2019-01-22T09:59:32.409Z,110.70
2019-01-22T10:02:01.930Z,103.83
2019-01-22T10:04:49.850Z,102.30
2019-01-22T10:07:32.279Z,101.45
2019-01-22T10:10:21.449Z,109.80
2019-01-22T10:13:03.556Z,97.67
2019-01-22T10:15:52.359Z,94.90
2019-01-22T10:18:34.200Z,82.55
2019-01-22T10:21:22.348Z,87.88
2019-01-22T10:24:04.289Z,102.53
2019-01-22T10:26:52.448Z,86.80
2019-01-22T10:29:34.281Z,87.20
2019-01-22T10:32:22.293Z,114.82
2019-01-22T10:35:05.259Z,267.73
2019-01-22T10:37:53.466Z,111.10
2019-01-22T10:43:39.863Z,89.58
2019-01-22T10:46:27.940Z,89.60
2019-01-22T10:49:10.017Z,94.92
2019-01-22T10:51:58.108Z,96.95
2019-01-22T10:54:39.848Z,112.47
2019-01-22T10:57:27.956Z,92.50
2019-01-22T11:00:36.563Z,93.58
2019-01-22T11:03:24.653Z,81.47
2019-01-22T11:06:08.741Z,92.37
2019-01-22T11:08:37.607Z,84.55
2019-01-22T11:11:06.340Z,93.42
2019-01-22T11:13:35.259Z,88.72
2019-01-22T11:16:04.011Z,101.80
2019-01-22T11:18:32.955Z,91.50
2019-01-22T11:21:21.271Z,101.90
2019-01-22T11:23:50.142Z,79.25
2019-01-22T11:26:38.201Z,85.42
2019-01-22T11:29:24.204Z,85.80
2019-01-22T11:32:12.464Z,100.70
2019-01-22T11:34:55.629Z,90.77
2019-01-22T11:37:24.535Z,89.07
2019-01-22T11:40:36.759Z,99.15
2019-01-22T11:43:18.722Z,89.00
2019-01-22T11:46:06.770Z,86.08
2019-01-22T11:48:49.965Z,84.87
2019-01-22T11:51:31.677Z,91.08
2019-01-22T11:54:19.910Z,91.90
2019-01-22T11:57:05.893Z,81.32
2019-01-22T11:59:34.738Z,87.17
2019-01-22T12:02:22.905Z,81.45
2019-01-22T12:04:51.718Z,81.45
2019-01-22T12:07:40.019Z,94.28
2019-01-22T12:10:22.378Z,95.15
2019-01-22T12:12:52.397Z,83.80
2019-01-22T12:15:21.684Z,93.03
2019-01-22T12:18:10.954Z,90.53
2019-01-22T12:20:59.053Z,94.10
2019-01-22T12:23:41.403Z,89.20
2019-01-22T12:26:29.548Z,83.20
2019-01-22T12:28:58.577Z,88.80
2019-01-22T12:31:46.804Z,81.02
2019-01-22T12:34:15.654Z,82.37
2019-01-22T12:37:03.778Z,87.65
2019-01-22T12:39:32.763Z,91.90
2019-01-22T12:42:01.661Z,95.42
2019-01-22T12:44:49.813Z,79.97
2019-01-22T12:47:37.881Z,64.37
2019-01-22T12:50:25.633Z,81.12
2019-01-22T12:53:04.479Z,75.75
2019-01-22T12:55:52.529Z,81.02
2019-01-22T12:58:21.352Z,144.40
2019-01-22T13:01:09.384Z,73.28
2019-01-22T13:03:57.544Z,93.10
2019-01-22T13:06:39.462Z,66.42
2019-01-22T13:09:08.549Z,65.90
2019-01-22T13:12:16.881Z,77.85
2019-01-22T13:15:24.398Z,81.37
2019-01-22T13:18:06.617Z,68.78
2019-01-22T13:20:54.878Z,59.23
2019-01-22T13:23:36.640Z,61.92
2019-01-22T13:26:11.509Z,65.22
2019-01-22T13:28:35.809Z,63.58
2019-01-22T13:31:24.045Z,61.20
2019-01-22T13:33:53.403Z,50.25
2019-01-22T13:36:41.687Z,58.38
2019-01-22T13:39:23.800Z,43.85
2019-01-22T13:42:05.495Z,49.35
2019-01-22T13:44:53.649Z,60.20
2019-01-22T13:47:34.989Z,41.95
2019-01-22T13:50:25.123Z,41.53
2019-01-22T13:53:06.712Z,46.73
2019-01-22T13:55:48.455Z,56.10
2019-01-22T13:58:36.793Z,53.13
2019-01-22T14:01:22.121Z,44.18
2019-01-22T14:04:04.208Z,45.73
2019-01-22T14:06:52.590Z,46.28
2019-01-22T14:09:36.089Z,43.05
2019-01-22T14:12:18.060Z,63.90
2019-01-22T14:15:22.643Z,50.20
2019-01-22T14:17:51.792Z,44.10
2019-01-22T14:20:39.804Z,46.35
2019-01-22T14:23:27.848Z,45.95
2019-01-22T14:26:10.058Z,47.48
2019-01-22T14:28:58.186Z,53.78
2019-01-22T14:31:32.040Z,41.45
2019-01-22T14:34:17.604Z,40.88
2019-01-22T14:36:46.400Z,39.48
2019-01-22T14:39:34.523Z,42.85
2019-01-22T14:42:16.238Z,40.85
2019-01-22T14:44:58.253Z,43.17
2019-01-22T14:47:46.911Z,37.55
2019-01-22T14:50:35.004Z,41.00
2019-01-22T14:53:16.795Z,40.52
2019-01-22T14:55:58.488Z,50.65
2019-01-22T14:58:46.454Z,47.15
2019-01-22T15:01:28.706Z,52.67
2019-01-22T15:04:20.268Z,62.73
2019-01-22T15:07:08.460Z,60.03
2019-01-22T15:09:50.480Z,60.10
2019-01-22T15:12:39.260Z,62.62
2019-01-22T15:15:21.728Z,55.35
2019-01-22T15:18:09.837Z,61.25
2019-01-22T15:20:51.221Z,64.07
2019-01-22T15:23:32.968Z,55.95
2019-01-22T15:26:21.065Z,59.75
2019-01-22T15:29:09.037Z,61.08
2019-01-22T15:31:50.987Z,71.85
2019-01-22T15:34:39.073Z,67.67
2019-01-22T15:37:21.235Z,70.57
2019-01-22T15:40:23.259Z,68.33
2019-01-22T15:43:05.546Z,79.42
2019-01-22T15:45:53.551Z,92.33
2019-01-22T15:48:35.302Z,73.35
2019-01-22T15:51:23.357Z,84.92
2019-01-22T15:53:52.266Z,84.75
2019-01-22T15:56:46.226Z,71.15
2019-01-22T15:59:10.761Z,63.52
2019-01-22T16:01:58.876Z,76.10
2019-01-22T16:04:28.830Z,77.53
2019-01-22T16:07:38.335Z,67.75
2019-01-22T16:10:26.956Z,73.80
2019-01-22T16:13:09.187Z,76.90
2019-01-22T16:15:57.253Z,69.87
2019-01-22T16:18:38.953Z,80.77
2019-01-22T16:21:26.608Z,77.25
2019-01-22T16:24:08.728Z,87.33
2019-01-22T16:26:37.908Z,82.42
2019-01-22T16:29:26.048Z,77.27
2019-01-22T16:32:14.255Z,84.85
2019-01-22T16:34:56.334Z,75.35
2019-01-22T16:37:44.389Z,87.85
2019-01-22T16:40:26.173Z,76.92
2019-01-22T16:42:54.944Z,99.05
2019-01-22T16:45:43.001Z,79.62
2019-01-22T16:48:31.636Z,90.47
2019-01-22T16:54:22.036Z,73.40
2019-01-22T16:57:10.171Z,85.72
2019-01-22T16:59:52.247Z,78.25
2019-01-22T17:02:40.263Z,76.35
2019-01-22T17:05:21.866Z,93.10
2019-01-22T17:08:09.959Z,90.65
2019-01-22T17:10:58.056Z,84.22
2019-01-22T17:13:26.809Z,83.95
2019-01-22T17:16:14.982Z,81.02
2019-01-22T17:19:03.078Z,92.22
2019-01-22T17:21:44.278Z,89.17
2019-01-22T17:24:13.041Z,99.37
2019-01-22T17:27:07.090Z,95.35
2019-01-22T17:29:44.709Z,98.58
2019-01-22T17:38:45.968Z,98.55
2019-01-22T17:41:27.286Z,97.42
2019-01-22T17:44:09.227Z,91.30
2019-01-22T17:46:57.260Z,106.47
2019-01-22T17:49:38.950Z,92.27
2019-01-22T17:52:26.956Z,99.28
2019-01-22T17:55:10.063Z,97.78
2019-01-22T17:57:58.100Z,89.60
2019-01-22T18:00:40.269Z,89.45
2019-01-22T18:03:28.332Z,113.75
2019-01-22T18:06:10.437Z,95.15
2019-01-22T18:08:58.475Z,96.50
2019-01-22T18:11:40.488Z,102.87
2019-01-22T18:14:28.522Z,89.00
2019-01-22T18:17:09.712Z,94.05
2019-01-22T18:19:57.897Z,93.65
2019-01-22T18:22:39.152Z,91.65
2019-01-22T18:25:41.297Z,84.52
2019-01-22T18:28:29.333Z,84.77
2019-01-22T18:31:11.411Z,86.57
2019-01-22T18:33:59.482Z,85.53
2019-01-22T18:36:47.468Z,90.22
2019-01-22T18:39:29.883Z,91.05
2019-01-22T18:42:11.801Z,99.87
2019-01-22T18:44:53.010Z,97.88
2019-01-22T18:47:41.135Z,98.80
2019-01-22T18:50:24.420Z,96.22
2019-01-22T18:53:12.538Z,85.47
2019-01-22T18:56:00.439Z,93.90
2019-01-22T18:58:42.456Z,97.33
2019-01-22T19:01:30.499Z,84.40
2019-01-22T19:04:18.569Z,81.35
2019-01-22T19:07:00.745Z,83.07
2019-01-22T19:09:48.789Z,88.75
2019-01-22T19:12:30.663Z,85.90
2019-01-22T19:15:18.915Z,83.95
2019-01-22T19:18:00.747Z,87.55
2019-01-22T19:20:48.673Z,87.97
2019-01-22T19:23:30.529Z,91.57
2019-01-22T19:26:19.705Z,96.20
2019-01-22T19:28:48.978Z,84.75
2019-01-22T19:31:36.982Z,85.03
2019-01-22T19:34:25.027Z,93.52
2019-01-22T19:37:07.029Z,87.90
2019-01-22T19:39:55.041Z,92.20
2019-01-22T19:42:36.599Z,94.20
2019-01-22T19:45:45.291Z,91.92
2019-01-22T19:48:26.695Z,92.70
2019-01-22T19:51:14.730Z,103.38
2019-01-22T19:53:43.387Z,92.15
2019-01-22T19:56:31.509Z,92.42
2019-01-22T19:59:19.575Z,84.03
2019-01-22T20:02:01.545Z,100.10
2019-01-22T20:04:49.804Z,87.00
2019-01-22T20:07:31.691Z,95.70
2019-01-22T20:10:19.711Z,85.40
2019-01-22T20:13:01.017Z,96.82
2019-01-22T20:15:49.543Z,97.33
2019-01-22T20:18:34.230Z,97.53
2019-01-22T20:21:22.984Z,84.77
2019-01-22T20:24:05.450Z,97.92
2019-01-22T20:26:54.445Z,91.85
2019-01-22T20:29:36.462Z,84.62
2019-01-22T20:32:25.384Z,71.10
2019-01-22T20:35:07.849Z,76.62
2019-01-22T20:37:56.295Z,72.50
2019-01-22T20:40:39.687Z,83.72
2019-01-22T20:43:28.678Z,78.37
2019-01-22T20:46:11.115Z,82.67
2019-01-22T20:49:00.257Z,85.20
2019-01-22T20:51:42.538Z,71.95
2019-01-22T20:54:31.570Z,84.40
2019-01-22T20:57:13.069Z,86.53
2019-01-22T21:00:01.138Z,90.00
2019-01-22T21:02:29.909Z,78.57
2019-01-22T21:05:32.224Z,91.22
2019-01-22T21:08:14.398Z,89.00
2019-01-22T21:11:02.392Z,75.15
2019-01-22T21:13:31.127Z,92.57
2019-01-22T21:16:19.050Z,87.15
2019-01-22T21:19:00.904Z,67.87
2019-01-22T21:21:48.937Z,73.72
2019-01-22T21:24:30.099Z,88.50
2019-01-22T21:27:18.127Z,72.60
2019-01-22T21:30:00.122Z,82.72
2019-01-22T21:32:48.308Z,79.40
2019-01-22T21:35:29.926Z,82.72
2019-01-22T21:38:17.990Z,85.85
2019-01-22T21:40:59.874Z,80.90
2019-01-22T21:43:41.206Z,84.17
2019-01-22T21:46:29.282Z,81.57
2019-01-22T21:49:11.430Z,81.02
2019-01-22T21:51:59.427Z,84.62
2019-01-22T21:54:41.549Z,80.12
2019-01-22T21:57:29.511Z,81.10
2019-01-22T22:00:13.349Z,86.92
2019-01-22T22:06:02.546Z,97.65
2019-01-22T22:08:50.501Z,86.20
2019-01-22T22:11:32.390Z,83.60
2019-01-22T22:14:20.445Z,89.13
2019-01-22T22:17:02.124Z,82.42
2019-01-22T22:19:50.160Z,80.45
2019-01-22T22:22:31.978Z,87.15
2019-01-22T22:25:20.824Z,83.45
2019-01-22T22:28:03.043Z,76.82
2019-01-22T22:30:51.016Z,81.53
2019-01-22T22:33:32.920Z,81.12
2019-01-22T22:36:20.956Z,80.25
2019-01-22T22:39:04.881Z,81.65
2019-01-22T22:41:53.044Z,80.90
2019-01-22T22:44:34.203Z,82.08
2019-01-22T22:47:22.188Z,79.00
2019-01-22T22:50:05.084Z,76.30
2019-01-22T22:52:53.077Z,76.92
2019-01-22T22:55:21.857Z,72.22
2019-01-22T22:58:09.800Z,76.70
2019-01-22T23:01:11.854Z,73.85
2019-01-22T23:03:53.789Z,72.27
2019-01-22T23:06:41.897Z,81.02
2019-01-22T23:09:29.877Z,73.33
2019-01-22T23:11:58.711Z,86.40
2019-01-22T23:14:46.751Z,86.92
2019-01-22T23:17:34.768Z,78.50
2019-01-22T23:20:16.692Z,83.65
2019-01-22T23:23:04.798Z,73.90
2019-01-22T23:25:46.720Z,77.95
2019-01-22T23:28:34.323Z,72.58
2019-01-22T23:31:16.435Z,73.07
2019-01-22T23:34:04.480Z,85.12
2019-01-22T23:36:45.612Z,75.42
2019-01-22T23:39:33.607Z,75.70
2019-01-22T23:42:15.622Z,78.15
2019-01-22T23:44:57.545Z,90.85
2019-01-22T23:47:45.581Z,71.50
2019-01-22T23:50:27.561Z,77.25
2019-01-22T23:53:15.611Z,81.87
2019-01-22T23:55:44.343Z,78.92
2019-01-22T23:58:35.899Z,81.75
